Angleton, TX

9:01 PM CDT on July 06, 2015 (GMT -0500)
Akers Subdivision | | Change Station
CLOSE
Current Station
Personal Weather Station
Location: Angleton, TX
Elevation: 43 ft
Nearby Weather Stations

Elev 43 ft 29.17 °N, 95.43 °W | Updated 10 minutes ago

Partly Cloudy
Partly Cloudy
83.3 °F
Feels Like 91 °F
N
0.0
Wind Variable Wind from SE

Today
High -- | Low -- °F
--% Chance of Precip.
Yesterday
High -- | Low -- °F
Precip. -- in
6:28 AM 8:24 PM
Waning Gibbous, 70% visible
Pressure 29.96 in
Visibility 10.0 miles
Clouds Few 2500 ft
Few 3200 ft
Heat Index 91 °F
Dew Point 76 °F
Humidity 78%
Rainfall 0.02 in
Snow Depth Not available.
UV 0 out of 12
Pollen 3.80 out of 12
Air Quality Not available.
Flu Activity Not available.
METAR KLBX 070153Z AUTO 18009KT 10SM FEW025 FEW032 28/25 A2997 RMK AO2 RAE0055B20E42 SLP146 P0000 T02830250

More Conditions Fewer Conditions

Pressure 29.96 in
Visibility 10.0 miles
Clouds Few 2500 ft
Few 3200 ft
Heat Index 91 °F
Dew Point 76 °F
Humidity 78%
Rainfall 0.02 in
Snow Depth Not available.
UV 0 out of 12
Pollen 3.80 out of 12
Air Quality Not available.
Flu Activity Not available.
METAR KLBX 070153Z AUTO 18009KT 10SM FEW025 FEW032 28/25 A2997 RMK AO2 RAE0055B20E42 SLP146 P0000 T02830250

More Conditions Fewer Conditions

10-Day Weather Forecast

×

Almanac

Astronomy

Jul. 06, 2015 Rise Set
Actual Time
Civil Twilight
Nautical Twilight
Astronomical Twilight
Moon
Length of Visible Light
Length of Day
Tomorrow will be .
, % of the Moon is Illuminated

Today's Extremes

State Highs State Lows

Community

WunderPhotos

Upload Photos

1,835,692 photos uploaded!

WunderBlogs® & News

Nearby

Air Quality

  Air Quality AQ Index Pollutant
Not available.

Snow Depth

Station Depth Elevation

Earthquake Activity

City Distance Mag. Time & Date
Minimum magnitude displayed is 2.5.

Coastal Water Temperatures

Place Temperature

Stations

Nearby Weather Stations

Station Location Temp. Windchill Dew Point Humidity Wind Precip. Elev Updated Type